Ancona, Illinois
Current Conditions -  °F | °C
As of 9:55 PM on Sunday 23 Nov 2014 (Local Time) from KPNT Reporting Station
Light Rain Light Rain  
Wind Chill: 10°   Ceiling: 400
Heat Index: 10°   Visibility: 0.75mi
Dew Point: 10°   Wind: 0mph
Humidity: 100%   Direction: NA
Pressure: 29.17"   Gusts: NA
Location:  41.04°N, 88.87°W
Report Text: KPNT 240355Z AUTO 00000KT 3/4SM -RA OVC004 10/10 A2917 RMK AO2 P0003 T00990099
Loading
Personal Weather Stations






























Interactive Weather Map New forecast layout! Learn more

10-Day Weather Forecast

Advertisements
Track Severe Weather on mobile